

Wyoming Mesonet
Water Resources Data System and State Climate Office
SEO WACNet, UW USACE UMRB, USDA-ARS, BLM
| Wind | Soil | |||||||||||||||||||
| Temp | Precip | Speed | Dir | Gust | Dir | Humidity | Pressure | Solar | Snow | Temperature (Deg F) | Moisture (%) | |||||||||
| Date Time (MST) | (F) | (in) | (mph) | (deg) | (mph) | (deg) | (%) | (Mbars) | (w/m^2) | (in) | 5cm | 10cm | 20cm | 50cm | 1m | 5cm | 10cm | 20cm | 50cm | 1m |
| 2026-08-30 00:00:00 | 63.52 | 0.00 | 15.09 | 212 | 19.13 | 225 | 60.0 | 845.0 | 0.0 | 0.0 | 73.04 | 76.64 | 78.26 | 76.28 | 73.04 | 15.0% | 13.0% | 13.4% | 15.1% | 11.9% |
| 2026-08-30 01:00:00 | 64.31 | 0.00 | 15.20 | 218 | 23.22 | 214 | 57.8 | 845.0 | 0.0 | 0.0 | 72.14 | 75.74 | 77.72 | 76.28 | 72.86 | 15.0% | 13.0% | 13.3% | 15.0% | 11.9% |
| 2026-08-30 02:00:00 | 63.46 | 0.00 | 13.39 | 202 | 26.08 | 225 | 59.1 | 845.0 | 0.0 | 0.0 | 71.42 | 75.02 | 77.18 | 76.28 | 73.04 | 14.9% | 12.8% | 13.2% | 15.0% | 11.9% |
| 2026-08-30 03:00:00 | 63.72 | 0.00 | 20.24 | 215 | 26.08 | 218 | 57.4 | 845.0 | 0.0 | 0.0 | 70.70 | 74.48 | 76.64 | 76.28 | 73.04 | 14.8% | 12.8% | 13.3% | 14.9% | 11.9% |
| 2026-08-30 04:00:00 | 62.53 | 0.00 | 21.12 | 203 | 30.44 | 210 | 61.3 | 845.0 | 0.0 | 0.0 | 69.98 | 73.94 | 76.10 | 76.28 | 73.04 | 14.7% | 12.7% | 13.3% | 15.0% | 11.9% |
| 2026-08-30 05:00:00 | 61.50 | 0.00 | 19.37 | 204 | 29.06 | 190 | 64.4 | 845.0 | 0.0 | 0.0 | 69.44 | 73.22 | 75.56 | 76.28 | 72.86 | 14.7% | 12.7% | 13.2% | 15.0% | 11.9% |
| 2026-08-30 06:00:00 | 62.11 | 0.00 | 21.21 | 216 | 27.20 | 217 | 62.2 | 845.0 | 43.4 | 0.0 | 68.90 | 72.68 | 75.38 | 76.28 | 73.04 | 14.7% | 12.5% | 13.2% | 15.0% | 11.9% |
| 2026-08-30 07:00:00 | 63.57 | 0.00 | 16.16 | 212 | 29.06 | 210 | 61.1 | 846.0 | 84.3 | 0.0 | 68.72 | 72.14 | 74.66 | 76.28 | 72.86 | 14.6% | 12.6% | 13.2% | 15.0% | 11.8% |
| 2026-08-30 08:00:00 | 67.03 | 0.00 | 21.92 | 198 | 27.96 | 200 | 55.6 | 846.0 | 436.8 | 0.0 | 69.80 | 71.96 | 74.30 | 76.10 | 72.86 | 14.6% | 12.4% | 13.1% | 15.0% | 11.9% |
| 2026-08-30 09:00:00 | 72.48 | 0.00 | 14.61 | 224 | 27.45 | 200 | 39.0 | 846.0 | 596.3 | 0.0 | 73.04 | 72.32 | 73.94 | 76.10 | 73.04 | 14.7% | 12.5% | 13.3% | 15.0% | 11.9% |
| 2026-08-30 10:00:00 | 75.70 | 0.00 | 20.69 | 222 | 27.69 | 227 | 35.8 | 846.0 | 725.6 | 0.0 | 78.26 | 73.40 | 73.94 | 76.10 | 73.22 | 15.0% | 12.7% | 13.1% | 15.1% | 11.9% |
| 2026-08-30 11:00:00 | 79.38 | 0.00 | 24.99 | 226 | 38.52 | 221 | 28.1 | 845.0 | 832.0 | 0.0 | 82.94 | 75.38 | 74.12 | 76.10 | 72.86 | 15.2% | 12.9% | 13.2% | 15.0% | 11.9% |
| 2026-08-30 12:00:00 | 80.20 | 0.00 | 24.45 | 236 | 34.90 | 217 | 24.2 | 845.0 | 754.9 | 0.0 | 86.54 | 77.54 | 75.02 | 75.92 | 72.86 | 15.4% | 13.1% | 13.2% | 15.0% | 11.8% |
| 2026-08-30 13:00:00 | 79.07 | 0.00 | 25.21 | 233 | 34.54 | 226 | 24.9 | 845.0 | 477.5 | 0.0 | 86.54 | 79.34 | 75.74 | 75.92 | 73.04 | 15.4% | 13.2% | 13.3% | 15.0% | 11.9% |
| 2026-08-30 14:00:00 | 77.02 | 0.00 | 21.25 | 248 | 40.13 | 240 | 25.1 | 846.0 | 376.7 | 0.0 | 85.82 | 80.42 | 76.82 | 75.74 | 73.04 | 15.4% | 13.3% | 13.3% | 14.9% | 11.9% |
| 2026-08-30 15:00:00 | 78.48 | 0.00 | 21.77 | 249 | 31.92 | 246 | 19.8 | 846.0 | 495.2 | 0.0 | 85.46 | 80.96 | 77.72 | 75.74 | 73.04 | 15.3% | 13.3% | 13.3% | 15.0% | 11.8% |
| 2026-08-30 16:00:00 | 75.61 | 0.00 | 11.10 | 22 | 27.34 | 250 | 33.5 | 845.0 | 534.5 | 0.0 | 85.64 | 81.50 | 78.26 | 75.74 | 73.04 | 15.3% | 13.4% | 13.5% | 15.0% | 11.9% |
| 2026-08-30 17:00:00 | 74.21 | 0.00 | 5.44 | 345 | 18.25 | 10 | 32.3 | 845.0 | 315.7 | 0.0 | 84.20 | 81.68 | 78.80 | 75.56 | 72.86 | 15.3% | 13.3% | 13.5% | 14.9% | 11.9% |
| 2026-08-30 18:00:00 | 70.65 | 0.00 | 10.95 | 73 | 15.78 | 53 | 43.2 | 846.0 | 104.9 | 0.0 | 81.68 | 81.32 | 79.16 | 75.56 | 73.04 | 15.2% | 13.4% | 13.5% | 15.0% | 11.7% |
| 2026-08-30 19:00:00 | 65.12 | 0.00 | 13.02 | 68 | 16.52 | 63 | 53.0 | 846.0 | 0.0 | 0.0 | 79.16 | 80.42 | 79.34 | 75.56 | 72.86 | 15.1% | 13.3% | 13.5% | 15.0% | 11.9% |
| 2026-08-30 20:00:00 | 62.49 | 0.00 | 6.28 | 58 | 15.53 | 63 | 59.8 | 846.0 | 0.0 | 0.0 | 76.82 | 79.34 | 79.16 | 75.56 | 72.86 | 14.8% | 13.2% | 13.5% | 15.0% | 11.9% |
| 2026-08-30 21:00:00 | 60.35 | 0.00 | 11.37 | 62 | 15.16 | 65 | 62.5 | 847.0 | 0.0 | 0.0 | 75.02 | 78.26 | 78.80 | 75.56 | 73.04 | 14.7% | 13.2% | 13.5% | 14.9% | 11.8% |
| 2026-08-30 22:00:00 | 57.25 | 0.00 | 8.29 | 71 | 14.53 | 75 | 68.1 | 847.0 | 0.0 | 0.0 | 73.40 | 77.18 | 78.26 | 75.56 | 72.86 | 14.6% | 13.1% | 13.5% | 14.9% | 11.9% |
| 2026-08-30 23:00:00 | 55.13 | 0.00 | 6.20 | 88 | 15.53 | 145 | 73.0 | 847.0 | 0.0 | 0.0 | 71.78 | 76.10 | 77.72 | 75.56 | 72.86 | 14.5% | 13.1% | 13.5% | 15.0% | 11.9% |